sensor_id;sensor_type;location;lat;lon;timestamp;P1;durP1;ratioP1;P2;durP2;ratioP2
74459;SDS011;62902;48.854;9.292;2022-09-06T00:03:21;8.60;;;2.90;;
74459;SDS011;62902;48.854;9.292;2022-09-06T00:05:48;5.78;;;2.97;;
74459;SDS011;62902;48.854;9.292;2022-09-06T00:08:15;6.28;;;2.60;;
74459;SDS011;62902;48.854;9.292;2022-09-06T00:10:42;7.13;;;2.97;;
74459;SDS011;62902;48.854;9.292;2022-09-06T00:13:09;7.57;;;2.92;;
74459;SDS011;62902;48.854;9.292;2022-09-06T00:15:36;6.57;;;2.90;;
74459;SDS011;62902;48.854;9.292;2022-09-06T00:18:04;4.97;;;2.92;;
74459;SDS011;62902;48.854;9.292;2022-09-06T00:20:32;7.00;;;3.10;;
74459;SDS011;62902;48.854;9.292;2022-09-06T00:23:01;5.97;;;2.92;;
74459;SDS011;62902;48.854;9.292;2022-09-06T00:25:29;7.25;;;3.08;;
74459;SDS011;62902;48.854;9.292;2022-09-06T00:27:56;9.65;;;3.10;;
74459;SDS011;62902;48.854;9.292;2022-09-06T00:30:24;6.68;;;3.10;;
74459;SDS011;62902;48.854;9.292;2022-09-06T00:32:52;4.32;;;2.72;;
74459;SDS011;62902;48.854;9.292;2022-09-06T00:35:19;5.50;;;3.25;;
74459;SDS011;62902;48.854;9.292;2022-09-06T00:37:46;9.32;;;3.35;;
74459;SDS011;62902;48.854;9.292;2022-09-06T00:40:13;12.73;;;3.42;;
74459;SDS011;62902;48.854;9.292;2022-09-06T00:42:40;4.45;;;2.70;;
74459;SDS011;62902;48.854;9.292;2022-09-06T00:45:06;4.82;;;2.92;;
74459;SDS011;62902;48.854;9.292;2022-09-06T00:50:01;4.78;;;2.83;;
74459;SDS011;62902;48.854;9.292;2022-09-06T00:52:28;6.95;;;2.72;;
74459;SDS011;62902;48.854;9.292;2022-09-06T00:54:55;6.75;;;2.95;;
74459;SDS011;62902;48.854;9.292;2022-09-06T00:57:23;6.50;;;3.50;;
74459;SDS011;62902;48.854;9.292;2022-09-06T00:59:52;6.30;;;3.00;;
74459;SDS011;62902;48.854;9.292;2022-09-06T01:02:24;6.65;;;2.97;;
74459;SDS011;62902;48.854;9.292;2022-09-06T01:04:52;6.10;;;3.30;;
74459;SDS011;62902;48.854;9.292;2022-09-06T01:15:46;8.73;;;3.45;;
74459;SDS011;62902;48.854;9.292;2022-09-06T01:18:30;4.40;;;2.72;;
74459;SDS011;62902;48.854;9.292;2022-09-06T01:21:21;5.57;;;3.10;;
74459;SDS011;62902;48.854;9.292;2022-09-06T01:24:16;6.13;;;3.10;;
74459;SDS011;62902;48.854;9.292;2022-09-06T01:26:56;6.93;;;3.03;;
74459;SDS011;62902;48.854;9.292;2022-09-06T01:35:12;5.20;;;3.10;;
74459;SDS011;62902;48.854;9.292;2022-09-06T01:37:43;6.53;;;2.90;;
74459;SDS011;62902;48.854;9.292;2022-09-06T01:40:09;6.32;;;3.40;;
74459;SDS011;62902;48.854;9.292;2022-09-06T01:42:36;7.85;;;3.10;;
74459;SDS011;62902;48.854;9.292;2022-09-06T01:45:08;7.43;;;3.42;;
74459;SDS011;62902;48.854;9.292;2022-09-06T01:47:38;6.38;;;3.10;;
74459;SDS011;62902;48.854;9.292;2022-09-06T01:55:30;6.20;;;3.10;;
74459;SDS011;62902;48.854;9.292;2022-09-06T02:00:30;6.47;;;2.80;;
74459;SDS011;62902;48.854;9.292;2022-09-06T02:05:47;8.27;;;3.35;;
74459;SDS011;62902;48.854;9.292;2022-09-06T02:08:18;5.63;;;3.03;;
74459;SDS011;62902;48.854;9.292;2022-09-06T02:10:59;6.90;;;3.45;;
74459;SDS011;62902;48.854;9.292;2022-09-06T02:13:47;8.25;;;3.20;;
74459;SDS011;62902;48.854;9.292;2022-09-06T02:16:19;6.68;;;3.30;;
74459;SDS011;62902;48.854;9.292;2022-09-06T02:18:51;9.65;;;3.28;;
74459;SDS011;62902;48.854;9.292;2022-09-06T02:21:21;6.82;;;3.17;;
74459;SDS011;62902;48.854;9.292;2022-09-06T02:23:52;6.68;;;3.17;;
74459;SDS011;62902;48.854;9.292;2022-09-06T02:26:21;7.68;;;3.20;;
74459;SDS011;62902;48.854;9.292;2022-09-06T02:28:50;5.50;;;3.17;;
74459;SDS011;62902;48.854;9.292;2022-09-06T02:31:19;6.15;;;3.65;;
74459;SDS011;62902;48.854;9.292;2022-09-06T02:33:49;8.23;;;3.67;;
74459;SDS011;62902;48.854;9.292;2022-09-06T02:36:16;7.53;;;3.45;;
74459;SDS011;62902;48.854;9.292;2022-09-06T02:38:46;6.22;;;3.30;;
74459;SDS011;62902;48.854;9.292;2022-09-06T02:41:14;6.20;;;3.60;;
74459;SDS011;62902;48.854;9.292;2022-09-06T02:43:43;6.40;;;3.60;;
74459;SDS011;62902;48.854;9.292;2022-09-06T02:46:10;7.47;;;3.80;;
74459;SDS011;62902;48.854;9.292;2022-09-06T02:48:37;6.78;;;3.42;;
74459;SDS011;62902;48.854;9.292;2022-09-06T02:51:05;8.63;;;3.22;;
74459;SDS011;62902;48.854;9.292;2022-09-06T02:53:32;10.10;;;3.55;;
74459;SDS011;62902;48.854;9.292;2022-09-06T02:55:59;9.48;;;3.72;;
74459;SDS011;62902;48.854;9.292;2022-09-06T02:58:26;6.60;;;3.50;;
74459;SDS011;62902;48.854;9.292;2022-09-06T03:00:53;7.65;;;3.17;;
74459;SDS011;62902;48.854;9.292;2022-09-06T03:03:20;7.20;;;3.50;;
74459;SDS011;62902;48.854;9.292;2022-09-06T03:05:48;8.55;;;3.60;;
74459;SDS011;62902;48.854;9.292;2022-09-06T03:08:15;7.00;;;4.15;;
74459;SDS011;62902;48.854;9.292;2022-09-06T03:13:16;6.80;;;4.40;;
74459;SDS011;62902;48.854;9.292;2022-09-06T03:15:43;7.60;;;4.25;;
74459;SDS011;62902;48.854;9.292;2022-09-06T03:18:10;8.02;;;4.10;;
74459;SDS011;62902;48.854;9.292;2022-09-06T03:23:04;9.70;;;4.65;;
74459;SDS011;62902;48.854;9.292;2022-09-06T03:25:30;9.73;;;5.07;;
74459;SDS011;62902;48.854;9.292;2022-09-06T03:27:57;10.45;;;4.80;;
74459;SDS011;62902;48.854;9.292;2022-09-06T03:30:23;14.50;;;5.15;;
74459;SDS011;62902;48.854;9.292;2022-09-06T03:32:50;12.13;;;5.38;;
74459;SDS011;62902;48.854;9.292;2022-09-06T03:35:17;9.10;;;4.85;;
74459;SDS011;62902;48.854;9.292;2022-09-06T03:37:43;6.50;;;4.32;;
74459;SDS011;62902;48.854;9.292;2022-09-06T03:40:10;9.35;;;5.30;;
74459;SDS011;62902;48.854;9.292;2022-09-06T03:42:37;12.70;;;6.13;;
74459;SDS011;62902;48.854;9.292;2022-09-06T03:45:04;9.02;;;5.70;;
74459;SDS011;62902;48.854;9.292;2022-09-06T03:47:31;8.80;;;5.72;;
74459;SDS011;62902;48.854;9.292;2022-09-06T03:49:57;12.23;;;6.85;;
74459;SDS011;62902;48.854;9.292;2022-09-06T03:52:24;12.15;;;6.20;;
74459;SDS011;62902;48.854;9.292;2022-09-06T03:54:50;10.70;;;6.60;;
74459;SDS011;62902;48.854;9.292;2022-09-06T03:57:17;9.40;;;5.78;;
74459;SDS011;62902;48.854;9.292;2022-09-06T03:59:44;8.63;;;5.65;;
74459;SDS011;62902;48.854;9.292;2022-09-06T04:02:11;9.65;;;5.53;;
74459;SDS011;62902;48.854;9.292;2022-09-06T04:04:37;8.60;;;5.25;;
74459;SDS011;62902;48.854;9.292;2022-09-06T04:07:04;12.30;;;5.22;;
74459;SDS011;62902;48.854;9.292;2022-09-06T04:09:31;10.43;;;5.15;;
74459;SDS011;62902;48.854;9.292;2022-09-06T04:11:57;12.20;;;5.90;;
74459;SDS011;62902;48.854;9.292;2022-09-06T04:14:24;9.50;;;4.97;;
74459;SDS011;62902;48.854;9.292;2022-09-06T04:16:50;9.43;;;5.65;;
74459;SDS011;62902;48.854;9.292;2022-09-06T04:19:17;9.18;;;5.20;;
74459;SDS011;62902;48.854;9.292;2022-09-06T04:21:44;10.35;;;5.57;;
74459;SDS011;62902;48.854;9.292;2022-09-06T04:24:11;8.82;;;5.40;;
74459;SDS011;62902;48.854;9.292;2022-09-06T04:26:38;11.75;;;6.50;;
74459;SDS011;62902;48.854;9.292;2022-09-06T04:29:04;10.32;;;6.00;;
74459;SDS011;62902;48.854;9.292;2022-09-06T04:31:31;10.55;;;5.90;;
74459;SDS011;62902;48.854;9.292;2022-09-06T04:33:58;12.07;;;6.03;;
74459;SDS011;62902;48.854;9.292;2022-09-06T04:36:25;11.15;;;6.07;;
74459;SDS011;62902;48.854;9.292;2022-09-06T04:38:52;10.95;;;6.50;;
74459;SDS011;62902;48.854;9.292;2022-09-06T04:41:20;10.27;;;5.75;;
74459;SDS011;62902;48.854;9.292;2022-09-06T04:43:47;8.82;;;5.65;;
74459;SDS011;62902;48.854;9.292;2022-09-06T04:46:26;11.30;;;6.88;;
74459;SDS011;62902;48.854;9.292;2022-09-06T04:48:54;11.90;;;6.80;;
74459;SDS011;62902;48.854;9.292;2022-09-06T04:51:21;12.48;;;6.60;;
74459;SDS011;62902;48.854;9.292;2022-09-06T04:53:48;13.15;;;6.97;;
74459;SDS011;62902;48.854;9.292;2022-09-06T04:56:16;10.05;;;6.43;;
74459;SDS011;62902;48.854;9.292;2022-09-06T04:58:45;10.20;;;6.18;;
74459;SDS011;62902;48.854;9.292;2022-09-06T05:01:12;11.80;;;6.70;;
74459;SDS011;62902;48.854;9.292;2022-09-06T05:03:39;11.85;;;5.85;;
74459;SDS011;62902;48.854;9.292;2022-09-06T05:06:16;10.13;;;5.45;;
74459;SDS011;62902;48.854;9.292;2022-09-06T05:08:46;10.98;;;5.93;;
74459;SDS011;62902;48.854;9.292;2022-09-06T05:11:12;9.32;;;6.18;;
74459;SDS011;62902;48.854;9.292;2022-09-06T05:13:39;12.88;;;6.35;;
74459;SDS011;62902;48.854;9.292;2022-09-06T05:16:07;9.48;;;5.72;;
74459;SDS011;62902;48.854;9.292;2022-09-06T05:18:34;8.23;;;5.88;;
74459;SDS011;62902;48.854;9.292;2022-09-06T05:21:01;10.63;;;5.82;;
74459;SDS011;62902;48.854;9.292;2022-09-06T05:23:28;13.38;;;5.53;;
74459;SDS011;62902;48.854;9.292;2022-09-06T05:25:55;12.35;;;6.03;;
74459;SDS011;62902;48.854;9.292;2022-09-06T05:28:21;9.10;;;5.18;;
74459;SDS011;62902;48.854;9.292;2022-09-06T05:30:48;11.00;;;5.40;;
74459;SDS011;62902;48.854;9.292;2022-09-06T05:33:19;9.90;;;5.38;;
74459;SDS011;62902;48.854;9.292;2022-09-06T05:35:47;8.52;;;5.20;;
74459;SDS011;62902;48.854;9.292;2022-09-06T05:38:14;9.85;;;5.90;;
74459;SDS011;62902;48.854;9.292;2022-09-06T05:40:41;9.10;;;4.72;;
74459;SDS011;62902;48.854;9.292;2022-09-06T05:43:07;8.32;;;5.40;;
74459;SDS011;62902;48.854;9.292;2022-09-06T05:45:34;8.77;;;5.25;;
74459;SDS011;62902;48.854;9.292;2022-09-06T05:48:01;13.18;;;6.35;;
74459;SDS011;62902;48.854;9.292;2022-09-06T05:50:27;13.40;;;6.00;;
74459;SDS011;62902;48.854;9.292;2022-09-06T05:52:54;14.75;;;6.20;;
74459;SDS011;62902;48.854;9.292;2022-09-06T05:55:21;10.98;;;6.55;;
74459;SDS011;62902;48.854;9.292;2022-09-06T05:57:48;9.52;;;5.63;;
74459;SDS011;62902;48.854;9.292;2022-09-06T06:00:14;11.35;;;6.43;;
74459;SDS011;62902;48.854;9.292;2022-09-06T06:02:41;12.88;;;5.70;;
74459;SDS011;62902;48.854;9.292;2022-09-06T06:05:08;11.90;;;5.30;;
74459;SDS011;62902;48.854;9.292;2022-09-06T06:07:34;10.43;;;5.82;;
74459;SDS011;62902;48.854;9.292;2022-09-06T06:10:01;9.82;;;5.57;;
74459;SDS011;62902;48.854;9.292;2022-09-06T06:12:28;10.40;;;6.22;;
74459;SDS011;62902;48.854;9.292;2022-09-06T06:14:54;10.60;;;5.80;;
74459;SDS011;62902;48.854;9.292;2022-09-06T06:17:21;8.43;;;5.43;;
74459;SDS011;62902;48.854;9.292;2022-09-06T06:19:48;10.20;;;5.50;;
74459;SDS011;62902;48.854;9.292;2022-09-06T06:22:14;11.85;;;5.65;;
74459;SDS011;62902;48.854;9.292;2022-09-06T06:24:41;9.65;;;5.35;;
74459;SDS011;62902;48.854;9.292;2022-09-06T06:27:07;11.15;;;5.97;;
74459;SDS011;62902;48.854;9.292;2022-09-06T06:29:34;9.05;;;5.95;;
74459;SDS011;62902;48.854;9.292;2022-09-06T06:32:01;12.02;;;6.20;;
74459;SDS011;62902;48.854;9.292;2022-09-06T06:34:28;12.60;;;6.18;;
74459;SDS011;62902;48.854;9.292;2022-09-06T06:36:54;10.02;;;5.68;;
74459;SDS011;62902;48.854;9.292;2022-09-06T06:39:21;11.35;;;5.82;;
74459;SDS011;62902;48.854;9.292;2022-09-06T06:41:48;10.48;;;5.70;;
74459;SDS011;62902;48.854;9.292;2022-09-06T06:44:36;10.73;;;5.80;;
74459;SDS011;62902;48.854;9.292;2022-09-06T06:47:03;12.45;;;6.10;;
74459;SDS011;62902;48.854;9.292;2022-09-06T06:49:29;10.15;;;5.90;;
74459;SDS011;62902;48.854;9.292;2022-09-06T06:52:08;9.98;;;6.43;;
74459;SDS011;62902;48.854;9.292;2022-09-06T06:54:38;11.20;;;5.95;;
74459;SDS011;62902;48.854;9.292;2022-09-06T06:57:08;12.10;;;5.53;;
74459;SDS011;62902;48.854;9.292;2022-09-06T06:59:36;11.48;;;5.68;;
74459;SDS011;62902;48.854;9.292;2022-09-06T07:02:03;7.82;;;5.07;;
74459;SDS011;62902;48.854;9.292;2022-09-06T07:06:57;7.72;;;5.28;;
74459;SDS011;62902;48.854;9.292;2022-09-06T07:09:44;9.40;;;5.45;;
74459;SDS011;62902;48.854;9.292;2022-09-06T07:12:31;7.60;;;4.18;;
74459;SDS011;62902;48.854;9.292;2022-09-06T07:14:57;8.80;;;4.40;;
74459;SDS011;62902;48.854;9.292;2022-09-06T07:17:24;7.25;;;4.38;;
74459;SDS011;62902;48.854;9.292;2022-09-06T07:19:51;10.38;;;4.85;;
74459;SDS011;62902;48.854;9.292;2022-09-06T07:22:38;9.98;;;3.58;;
74459;SDS011;62902;48.854;9.292;2022-09-06T07:27:35;9.30;;;3.58;;
74459;SDS011;62902;48.854;9.292;2022-09-06T07:30:14;8.75;;;3.30;;
74459;SDS011;62902;48.854;9.292;2022-09-06T07:32:41;7.68;;;3.45;;
74459;SDS011;62902;48.854;9.292;2022-09-06T07:35:08;6.32;;;3.58;;
74459;SDS011;62902;48.854;9.292;2022-09-06T07:37:34;8.75;;;3.70;;
74459;SDS011;62902;48.854;9.292;2022-09-06T07:40:01;7.30;;;3.90;;
74459;SDS011;62902;48.854;9.292;2022-09-06T07:42:29;6.40;;;3.40;;
74459;SDS011;62902;48.854;9.292;2022-09-06T07:45:02;8.07;;;3.60;;
74459;SDS011;62902;48.854;9.292;2022-09-06T07:47:30;6.63;;;4.20;;
74459;SDS011;62902;48.854;9.292;2022-09-06T07:50:16;5.82;;;3.63;;
74459;SDS011;62902;48.854;9.292;2022-09-06T07:53:06;6.88;;;3.55;;
74459;SDS011;62902;48.854;9.292;2022-09-06T07:55:41;6.85;;;3.95;;
74459;SDS011;62902;48.854;9.292;2022-09-06T07:58:08;6.20;;;3.10;;
74459;SDS011;62902;48.854;9.292;2022-09-06T08:00:35;7.75;;;3.35;;
74459;SDS011;62902;48.854;9.292;2022-09-06T08:03:02;4.88;;;3.13;;
74459;SDS011;62902;48.854;9.292;2022-09-06T08:05:28;8.02;;;3.15;;
74459;SDS011;62902;48.854;9.292;2022-09-06T08:08:15;6.05;;;3.20;;
74459;SDS011;62902;48.854;9.292;2022-09-06T08:13:28;7.68;;;3.40;;
74459;SDS011;62902;48.854;9.292;2022-09-06T08:15:58;10.10;;;5.45;;
74459;SDS011;62902;48.854;9.292;2022-09-06T08:18:25;7.80;;;3.65;;
74459;SDS011;62902;48.854;9.292;2022-09-06T08:20:52;8.38;;;3.53;;
74459;SDS011;62902;48.854;9.292;2022-09-06T08:23:19;7.43;;;3.10;;
74459;SDS011;62902;48.854;9.292;2022-09-06T08:26:03;7.20;;;3.35;;
74459;SDS011;62902;48.854;9.292;2022-09-06T08:28:30;6.25;;;3.25;;
74459;SDS011;62902;48.854;9.292;2022-09-06T08:31:05;8.13;;;3.10;;
74459;SDS011;62902;48.854;9.292;2022-09-06T08:33:33;6.93;;;3.08;;
74459;SDS011;62902;48.854;9.292;2022-09-06T08:35:59;5.93;;;2.90;;
74459;SDS011;62902;48.854;9.292;2022-09-06T08:38:28;5.90;;;2.70;;
74459;SDS011;62902;48.854;9.292;2022-09-06T08:41:04;5.57;;;3.13;;
74459;SDS011;62902;48.854;9.292;2022-09-06T08:44:02;6.68;;;3.13;;
74459;SDS011;62902;48.854;9.292;2022-09-06T08:46:54;6.75;;;2.55;;
74459;SDS011;62902;48.854;9.292;2022-09-06T08:49:28;7.53;;;2.85;;
74459;SDS011;62902;48.854;9.292;2022-09-06T08:52:00;7.03;;;2.83;;
74459;SDS011;62902;48.854;9.292;2022-09-06T08:57:30;6.28;;;2.72;;
74459;SDS011;62902;48.854;9.292;2022-09-06T09:00:20;6.47;;;2.83;;
74459;SDS011;62902;48.854;9.292;2022-09-06T09:02:51;6.00;;;2.70;;
74459;SDS011;62902;48.854;9.292;2022-09-06T09:05:27;8.18;;;3.03;;
74459;SDS011;62902;48.854;9.292;2022-09-06T09:08:11;4.95;;;2.63;;
74459;SDS011;62902;48.854;9.292;2022-09-06T09:10:43;6.13;;;2.85;;
74459;SDS011;62902;48.854;9.292;2022-09-06T09:13:15;10.32;;;3.22;;
74459;SDS011;62902;48.854;9.292;2022-09-06T09:15:45;8.48;;;2.97;;
74459;SDS011;62902;48.854;9.292;2022-09-06T09:18:11;7.30;;;2.65;;
74459;SDS011;62902;48.854;9.292;2022-09-06T09:20:48;8.65;;;2.60;;
74459;SDS011;62902;48.854;9.292;2022-09-06T09:23:14;7.53;;;2.78;;
74459;SDS011;62902;48.854;9.292;2022-09-06T09:25:41;11.55;;;3.22;;
74459;SDS011;62902;48.854;9.292;2022-09-06T09:30:50;5.30;;;2.72;;
74459;SDS011;62902;48.854;9.292;2022-09-06T09:33:23;10.05;;;3.50;;
74459;SDS011;62902;48.854;9.292;2022-09-06T09:35:55;8.00;;;2.65;;
74459;SDS011;62902;48.854;9.292;2022-09-06T09:38:25;6.07;;;2.70;;
74459;SDS011;62902;48.854;9.292;2022-09-06T09:40:54;6.57;;;3.03;;
74459;SDS011;62902;48.854;9.292;2022-09-06T09:46:11;5.97;;;2.90;;
74459;SDS011;62902;48.854;9.292;2022-09-06T09:51:34;7.03;;;2.83;;
74459;SDS011;62902;48.854;9.292;2022-09-06T09:54:12;8.18;;;2.80;;
74459;SDS011;62902;48.854;9.292;2022-09-06T10:01:46;12.98;;;3.40;;
74459;SDS011;62902;48.854;9.292;2022-09-06T10:04:18;6.68;;;2.70;;
74459;SDS011;62902;48.854;9.292;2022-09-06T10:09:37;9.57;;;3.28;;
74459;SDS011;62902;48.854;9.292;2022-09-06T10:12:26;8.30;;;2.97;;
74459;SDS011;62902;48.854;9.292;2022-09-06T10:14:55;8.35;;;3.00;;
74459;SDS011;62902;48.854;9.292;2022-09-06T10:20:04;10.57;;;3.20;;
74459;SDS011;62902;48.854;9.292;2022-09-06T10:22:55;9.50;;;3.25;;
74459;SDS011;62902;48.854;9.292;2022-09-06T10:25:38;8.73;;;3.30;;
74459;SDS011;62902;48.854;9.292;2022-09-06T10:31:04;9.02;;;2.80;;
74459;SDS011;62902;48.854;9.292;2022-09-06T10:36:15;11.57;;;3.30;;
74459;SDS011;62902;48.854;9.292;2022-09-06T10:38:56;7.65;;;2.83;;
74459;SDS011;62902;48.854;9.292;2022-09-06T10:44:57;7.25;;;3.00;;
74459;SDS011;62902;48.854;9.292;2022-09-06T10:47:47;6.82;;;2.90;;
74459;SDS011;62902;48.854;9.292;2022-09-06T10:50:32;7.95;;;2.40;;
74459;SDS011;62902;48.854;9.292;2022-09-06T10:53:06;13.43;;;2.90;;
74459;SDS011;62902;48.854;9.292;2022-09-06T10:55:37;6.88;;;2.20;;
74459;SDS011;62902;48.854;9.292;2022-09-06T10:58:06;5.63;;;2.00;;
74459;SDS011;62902;48.854;9.292;2022-09-06T11:00:45;5.13;;;2.17;;
74459;SDS011;62902;48.854;9.292;2022-09-06T11:03:22;5.50;;;2.17;;
74459;SDS011;62902;48.854;9.292;2022-09-06T11:06:15;8.50;;;1.90;;
74459;SDS011;62902;48.854;9.292;2022-09-06T11:08:46;6.80;;;2.30;;
74459;SDS011;62902;48.854;9.292;2022-09-06T11:11:23;7.70;;;2.10;;
74459;SDS011;62902;48.854;9.292;2022-09-06T11:13:54;7.65;;;2.30;;
74459;SDS011;62902;48.854;9.292;2022-09-06T11:16:22;10.30;;;2.42;;
74459;SDS011;62902;48.854;9.292;2022-09-06T11:19:02;9.15;;;2.85;;
74459;SDS011;62902;48.854;9.292;2022-09-06T11:24:15;9.82;;;3.08;;
74459;SDS011;62902;48.854;9.292;2022-09-06T11:29:25;12.52;;;2.80;;
74459;SDS011;62902;48.854;9.292;2022-09-06T11:34:49;6.93;;;2.00;;
74459;SDS011;62902;48.854;9.292;2022-09-06T11:37:28;9.35;;;2.80;;
74459;SDS011;62902;48.854;9.292;2022-09-06T11:40:05;8.57;;;2.80;;
74459;SDS011;62902;48.854;9.292;2022-09-06T11:53:30;6.50;;;2.45;;
74459;SDS011;62902;48.854;9.292;2022-09-06T11:58:37;9.55;;;3.10;;
74459;SDS011;62902;48.854;9.292;2022-09-06T12:06:29;7.53;;;2.50;;
74459;SDS011;62902;48.854;9.292;2022-09-06T12:08:58;9.07;;;2.97;;
74459;SDS011;62902;48.854;9.292;2022-09-06T12:11:32;11.40;;;2.80;;
74459;SDS011;62902;48.854;9.292;2022-09-06T12:25:19;8.32;;;2.72;;
74459;SDS011;62902;48.854;9.292;2022-09-06T12:28:08;7.50;;;2.90;;
74459;SDS011;62902;48.854;9.292;2022-09-06T12:30:38;8.77;;;2.45;;
74459;SDS011;62902;48.854;9.292;2022-09-06T12:33:13;4.80;;;2.47;;
74459;SDS011;62902;48.854;9.292;2022-09-06T12:38:53;7.65;;;2.60;;
74459;SDS011;62902;48.854;9.292;2022-09-06T12:41:25;6.70;;;2.55;;
74459;SDS011;62902;48.854;9.292;2022-09-06T12:43:53;8.70;;;2.75;;
74459;SDS011;62902;48.854;9.292;2022-09-06T12:46:24;10.50;;;2.80;;
74459;SDS011;62902;48.854;9.292;2022-09-06T12:49:01;7.22;;;2.30;;
74459;SDS011;62902;48.854;9.292;2022-09-06T12:51:32;8.93;;;3.33;;
74459;SDS011;62902;48.854;9.292;2022-09-06T12:54:01;12.63;;;2.88;;
74459;SDS011;62902;48.854;9.292;2022-09-06T12:56:30;5.10;;;2.17;;
74459;SDS011;62902;48.854;9.292;2022-09-06T12:59:09;6.50;;;2.38;;
74459;SDS011;62902;48.854;9.292;2022-09-06T13:01:36;7.05;;;2.60;;
74459;SDS011;62902;48.854;9.292;2022-09-06T13:04:06;14.13;;;2.78;;
74459;SDS011;62902;48.854;9.292;2022-09-06T13:06:40;10.73;;;2.80;;
74459;SDS011;62902;48.854;9.292;2022-09-06T13:09:09;9.65;;;2.78;;
74459;SDS011;62902;48.854;9.292;2022-09-06T13:11:39;6.43;;;2.47;;
74459;SDS011;62902;48.854;9.292;2022-09-06T13:14:09;5.78;;;2.78;;
74459;SDS011;62902;48.854;9.292;2022-09-06T13:16:44;8.27;;;2.50;;
74459;SDS011;62902;48.854;9.292;2022-09-06T13:19:13;8.20;;;2.42;;
74459;SDS011;62902;48.854;9.292;2022-09-06T13:21:42;9.32;;;2.83;;
74459;SDS011;62902;48.854;9.292;2022-09-06T13:24:45;10.60;;;2.60;;
74459;SDS011;62902;48.854;9.292;2022-09-06T13:27:55;8.65;;;2.63;;
74459;SDS011;62902;48.854;9.292;2022-09-06T13:30:03;7.40;;;2.65;;
74459;SDS011;62902;48.854;9.292;2022-09-06T13:32:32;7.90;;;2.40;;
74459;SDS011;62902;48.854;9.292;2022-09-06T13:34:59;9.88;;;2.50;;
74459;SDS011;62902;48.854;9.292;2022-09-06T13:37:27;8.02;;;2.20;;
74459;SDS011;62902;48.854;9.292;2022-09-06T13:39:56;6.75;;;2.55;;
74459;SDS011;62902;48.854;9.292;2022-09-06T13:45:13;5.57;;;1.92;;
74459;SDS011;62902;48.854;9.292;2022-09-06T13:47:49;6.78;;;2.20;;
74459;SDS011;62902;48.854;9.292;2022-09-06T13:50:16;6.63;;;2.20;;
74459;SDS011;62902;48.854;9.292;2022-09-06T13:52:42;6.45;;;2.30;;
74459;SDS011;62902;48.854;9.292;2022-09-06T13:55:11;4.75;;;1.98;;
74459;SDS011;62902;48.854;9.292;2022-09-06T13:57:41;5.80;;;2.78;;
74459;SDS011;62902;48.854;9.292;2022-09-06T14:00:08;7.35;;;2.60;;
74459;SDS011;62902;48.854;9.292;2022-09-06T14:02:38;12.43;;;2.85;;
74459;SDS011;62902;48.854;9.292;2022-09-06T14:05:06;7.88;;;2.50;;
74459;SDS011;62902;48.854;9.292;2022-09-06T14:07:33;8.73;;;2.38;;
74459;SDS011;62902;48.854;9.292;2022-09-06T14:10:00;7.82;;;2.22;;
74459;SDS011;62902;48.854;9.292;2022-09-06T14:12:26;9.35;;;2.25;;
74459;SDS011;62902;48.854;9.292;2022-09-06T14:14:53;6.70;;;2.33;;
74459;SDS011;62902;48.854;9.292;2022-09-06T14:17:19;6.00;;;2.30;;
74459;SDS011;62902;48.854;9.292;2022-09-06T14:19:46;6.88;;;2.50;;
74459;SDS011;62902;48.854;9.292;2022-09-06T14:22:14;5.82;;;2.60;;
74459;SDS011;62902;48.854;9.292;2022-09-06T14:24:41;5.97;;;2.15;;
74459;SDS011;62902;48.854;9.292;2022-09-06T14:27:07;5.30;;;2.40;;
74459;SDS011;62902;48.854;9.292;2022-09-06T14:29:34;11.57;;;2.92;;
74459;SDS011;62902;48.854;9.292;2022-09-06T14:32:01;7.70;;;2.42;;
74459;SDS011;62902;48.854;9.292;2022-09-06T14:34:28;7.25;;;2.60;;
74459;SDS011;62902;48.854;9.292;2022-09-06T14:36:55;7.85;;;2.55;;
74459;SDS011;62902;48.854;9.292;2022-09-06T14:39:21;7.10;;;2.95;;
74459;SDS011;62902;48.854;9.292;2022-09-06T14:41:48;12.38;;;2.85;;
74459;SDS011;62902;48.854;9.292;2022-09-06T14:44:15;7.57;;;2.50;;
74459;SDS011;62902;48.854;9.292;2022-09-06T14:46:42;7.18;;;2.55;;
74459;SDS011;62902;48.854;9.292;2022-09-06T14:49:09;7.85;;;3.13;;
74459;SDS011;62902;48.854;9.292;2022-09-06T14:51:35;8.85;;;3.33;;
74459;SDS011;62902;48.854;9.292;2022-09-06T14:54:08;12.70;;;3.60;;
74459;SDS011;62902;48.854;9.292;2022-09-06T14:56:37;9.73;;;3.38;;
74459;SDS011;62902;48.854;9.292;2022-09-06T14:59:05;7.07;;;3.30;;
74459;SDS011;62902;48.854;9.292;2022-09-06T15:01:33;9.18;;;3.25;;
74459;SDS011;62902;48.854;9.292;2022-09-06T15:04:04;7.10;;;2.97;;
74459;SDS011;62902;48.854;9.292;2022-09-06T15:06:33;12.00;;;3.17;;
74459;SDS011;62902;48.854;9.292;2022-09-06T15:09:02;8.95;;;3.75;;
74459;SDS011;62902;48.854;9.292;2022-09-06T15:11:33;12.77;;;4.45;;
74459;SDS011;62902;48.854;9.292;2022-09-06T15:14:06;8.90;;;3.85;;
74459;SDS011;62902;48.854;9.292;2022-09-06T15:16:46;10.63;;;4.07;;
74459;SDS011;62902;48.854;9.292;2022-09-06T15:19:20;11.27;;;4.32;;
74459;SDS011;62902;48.854;9.292;2022-09-06T15:21:50;11.18;;;5.18;;
74459;SDS011;62902;48.854;9.292;2022-09-06T15:24:16;9.25;;;4.53;;
74459;SDS011;62902;48.854;9.292;2022-09-06T15:26:43;12.98;;;4.60;;
74459;SDS011;62902;48.854;9.292;2022-09-06T15:29:12;9.82;;;4.68;;
74459;SDS011;62902;48.854;9.292;2022-09-06T15:31:39;11.70;;;4.45;;
74459;SDS011;62902;48.854;9.292;2022-09-06T15:34:07;8.70;;;4.00;;
74459;SDS011;62902;48.854;9.292;2022-09-06T15:36:34;7.70;;;4.25;;
74459;SDS011;62902;48.854;9.292;2022-09-06T15:39:02;11.52;;;4.20;;
74459;SDS011;62902;48.854;9.292;2022-09-06T15:41:30;10.93;;;4.63;;
74459;SDS011;62902;48.854;9.292;2022-09-06T15:43:58;11.88;;;4.55;;
74459;SDS011;62902;48.854;9.292;2022-09-06T15:49:23;9.77;;;4.95;;
74459;SDS011;62902;48.854;9.292;2022-09-06T15:51:55;11.25;;;5.28;;
74459;SDS011;62902;48.854;9.292;2022-09-06T15:54:22;10.88;;;5.15;;
74459;SDS011;62902;48.854;9.292;2022-09-06T15:57:07;11.00;;;4.22;;
74459;SDS011;62902;48.854;9.292;2022-09-06T15:59:34;8.52;;;4.15;;
74459;SDS011;62902;48.854;9.292;2022-09-06T16:02:01;9.88;;;4.32;;
74459;SDS011;62902;48.854;9.292;2022-09-06T16:04:28;11.70;;;4.47;;
74459;SDS011;62902;48.854;9.292;2022-09-06T16:06:55;7.20;;;4.35;;
74459;SDS011;62902;48.854;9.292;2022-09-06T16:09:22;9.68;;;3.92;;
74459;SDS011;62902;48.854;9.292;2022-09-06T16:11:49;8.57;;;4.25;;
74459;SDS011;62902;48.854;9.292;2022-09-06T16:14:16;10.02;;;4.75;;
74459;SDS011;62902;48.854;9.292;2022-09-06T16:16:43;9.52;;;4.88;;
74459;SDS011;62902;48.854;9.292;2022-09-06T16:19:11;9.85;;;4.72;;
74459;SDS011;62902;48.854;9.292;2022-09-06T16:21:39;11.35;;;4.25;;
74459;SDS011;62902;48.854;9.292;2022-09-06T16:24:08;9.07;;;4.20;;
74459;SDS011;62902;48.854;9.292;2022-09-06T16:26:43;13.10;;;4.22;;
74459;SDS011;62902;48.854;9.292;2022-09-06T16:29:12;9.05;;;4.13;;
74459;SDS011;62902;48.854;9.292;2022-09-06T16:31:40;8.57;;;4.18;;
74459;SDS011;62902;48.854;9.292;2022-09-06T16:34:07;8.98;;;3.70;;
74459;SDS011;62902;48.854;9.292;2022-09-06T16:36:35;11.48;;;4.50;;
74459;SDS011;62902;48.854;9.292;2022-09-06T16:39:02;8.85;;;4.60;;
74459;SDS011;62902;48.854;9.292;2022-09-06T16:41:32;11.10;;;4.18;;
74459;SDS011;62902;48.854;9.292;2022-09-06T16:44:05;11.27;;;4.00;;
74459;SDS011;62902;48.854;9.292;2022-09-06T16:46:32;9.15;;;4.15;;
74459;SDS011;62902;48.854;9.292;2022-09-06T16:48:59;10.18;;;4.25;;
74459;SDS011;62902;48.854;9.292;2022-09-06T16:53:53;6.80;;;3.47;;
74459;SDS011;62902;48.854;9.292;2022-09-06T16:56:21;10.30;;;3.25;;
74459;SDS011;62902;48.854;9.292;2022-09-06T16:58:57;6.18;;;2.92;;
74459;SDS011;62902;48.854;9.292;2022-09-06T17:01:25;7.88;;;2.95;;
74459;SDS011;62902;48.854;9.292;2022-09-06T17:03:54;5.88;;;3.15;;